KPGA/PGA METAR and TAF weather

Enter ICAO airport designator
Station Type Date Time Source
KPGA METAR 2019/06/17 06:53 UTC NOAA

KPGA 170653Z AUTO 28006KT 10SM SCT110 23/07 A2999 RMK AO2 SLP085 T02280067 403060200 TSNO


Station Type Date Time Source
KPGA Decoded METAR 2019/06/17 06:53 UTC NOAA

PAGE MUNICIPAL AIRPORT, AZ, United States (KPGA) 36-56N 111-27W 1307M
Jun 17, 2019 - 02:53 AM EDT / 2019.06.17 0653 UTC
Wind: from the W (280 degrees) at 7 MPH (6 KT):0
Visibility: 10 mile(s):0
Sky conditions: partly cloudy
Temperature: 73.0 F (22.8 C)
Dew Point: 44.1 F (6.7 C)
Relative Humidity: 35%
Pressure (altimeter): 29.99 in. Hg (1015 hPa)
ob: KPGA 170653Z AUTO 28006KT 10SM SCT110 23/07 A2999 RMK AO2 SLP085 T02280067 403060200 TSNO
cycle: 7

Station Type Date Time Source
KPGA TAF 2019/06/17 06:33 UTC NOAA

TAF KPGA 170530Z 1706/1806 VRB05KT P6SM FEW100

Example: see airport list